createdAt,value
2022-11-15T00:01:51.991Z,51269.31
2022-11-15T00:04:37.742Z,51273.28
2022-11-15T00:07:53.704Z,51305.09
2022-11-15T00:10:28.937Z,51265.31
2022-11-15T00:13:14.557Z,51267.31
2022-11-15T00:16:02.349Z,51283.22
2022-11-15T00:18:50.811Z,51289.19
2022-11-15T00:21:36.939Z,51273.28
2022-11-15T00:24:22.610Z,51277.25
2022-11-15T00:27:08.533Z,51293.16
2022-11-15T00:29:54.369Z,51271.28
2022-11-15T00:32:40.552Z,51289.19
2022-11-15T00:35:26.380Z,51273.28
2022-11-15T00:38:12.172Z,51283.22
2022-11-15T00:40:57.793Z,51293.16
2022-11-15T00:43:44.685Z,51285.19
2022-11-15T00:46:30.749Z,51295.16
2022-11-15T00:49:16.190Z,51277.25
2022-11-15T00:52:01.625Z,51295.16
2022-11-15T00:54:47.276Z,51269.31
2022-11-15T00:57:32.843Z,51315.03
2022-11-15T01:00:18.594Z,51275.25
2022-11-15T01:03:04.399Z,51271.28
2022-11-15T01:05:49.789Z,51307.06
2022-11-15T01:08:35.577Z,51303.09
2022-11-15T01:11:21.221Z,51285.19
2022-11-15T01:14:06.728Z,51265.31
2022-11-15T01:16:52.174Z,51281.22
2022-11-15T01:19:37.691Z,51297.13
2022-11-15T01:22:23.717Z,51259.34
2022-11-15T01:25:09.103Z,51275.25
2022-11-15T01:27:54.823Z,51253.41
2022-11-15T01:30:40.441Z,51261.34
2022-11-15T01:33:26.367Z,51287.19
2022-11-15T01:36:23.570Z,51265.31
2022-11-15T01:39:09.514Z,51257.38
2022-11-15T01:41:55.869Z,51259.34
2022-11-15T01:44:51.782Z,51263.34
2022-11-15T01:47:41.998Z,51315.03
2022-11-15T01:50:32.694Z,51311.06
2022-11-15T01:53:21.394Z,51289.19
2022-11-15T01:56:11.438Z,51253.41
2022-11-15T01:58:59.971Z,51273.28
2022-11-15T02:01:46.146Z,51257.38
2022-11-15T02:04:36.457Z,51241.47
2022-11-15T02:07:23.824Z,51253.41
2022-11-15T02:10:19.303Z,51269.31
2022-11-15T02:13:05.075Z,51287.19
2022-11-15T02:16:36.956Z,51301.09
2022-11-15T02:19:33.698Z,51285.19
2022-11-15T02:23:03.986Z,51265.31
2022-11-15T02:26:08.584Z,51253.41
2022-11-15T02:29:11.424Z,51255.38
2022-11-15T02:32:05.072Z,51285.19
2022-11-15T02:35:03.381Z,51277.25
2022-11-15T02:38:16.790Z,51283.22
2022-11-15T02:41:18.393Z,51259.34
2022-11-15T02:44:40.393Z,51277.25
2022-11-15T02:47:30.491Z,51291.16
2022-11-15T02:50:21.583Z,51273.28
2022-11-15T02:53:08.694Z,51285.19
2022-11-15T02:55:56.127Z,51267.31
2022-11-15T02:59:08.670Z,51283.22
2022-11-15T03:02:24.721Z,51273.28
2022-11-15T03:05:19.135Z,51267.31
2022-11-15T03:08:46.596Z,51293.16
2022-11-15T03:11:42.678Z,51287.19
2022-11-15T03:14:41.308Z,51265.31
2022-11-15T03:17:37.269Z,51291.16
2022-11-15T03:20:22.975Z,51265.31
2022-11-15T03:23:12.153Z,51277.25
2022-11-15T03:26:01.399Z,51275.25
2022-11-15T03:29:06.279Z,51303.09
2022-11-15T03:32:00.174Z,51281.22
2022-11-15T03:35:03.049Z,51269.31
2022-11-15T03:38:17.082Z,51261.34
2022-11-15T03:41:11.070Z,51257.38
2022-11-15T03:44:53.274Z,51261.34
2022-11-15T03:48:00.267Z,51285.19
2022-11-15T03:50:47.474Z,51273.28
2022-11-15T03:53:33.631Z,51277.25
2022-11-15T03:56:19.567Z,51285.19
2022-11-15T03:59:05.369Z,51277.25
2022-11-15T04:01:50.860Z,51253.41
2022-11-15T04:04:36.212Z,51291.16
2022-11-15T04:07:21.719Z,51285.19
2022-11-15T04:10:09.220Z,51265.31
2022-11-15T04:12:54.824Z,51277.25
2022-11-15T04:15:40.248Z,51271.28
2022-11-15T04:18:25.833Z,51257.38
2022-11-15T04:21:29.965Z,51281.22
2022-11-15T04:24:15.337Z,51283.22
2022-11-15T04:27:01.294Z,51289.19
2022-11-15T04:29:46.829Z,51249.41
2022-11-15T04:32:32.143Z,51285.19
2022-11-15T04:35:17.707Z,51293.16
2022-11-15T04:38:05.870Z,51287.19
2022-11-15T04:40:51.491Z,51279.25
2022-11-15T04:43:37.102Z,51281.22
2022-11-15T04:46:23.598Z,51277.25
2022-11-15T04:49:09.171Z,51265.31
2022-11-15T04:51:54.574Z,51273.28
2022-11-15T04:54:39.906Z,51259.34
2022-11-15T04:57:25.622Z,51265.31
2022-11-15T05:00:14.547Z,51279.25
2022-11-15T05:03:18.875Z,51275.25
2022-11-15T05:06:04.668Z,51257.38
2022-11-15T05:08:50.273Z,51275.25
2022-11-15T05:11:35.975Z,51283.22
2022-11-15T05:14:21.507Z,51285.19
2022-11-15T05:17:06.819Z,51293.16
2022-11-15T05:19:52.994Z,51283.22
2022-11-15T05:22:38.787Z,51273.28
2022-11-15T05:25:24.548Z,51273.28
2022-11-15T05:28:10.227Z,51267.31
2022-11-15T05:31:09.999Z,51281.22
2022-11-15T05:33:57.511Z,51265.31
2022-11-15T05:36:46.683Z,51285.19
2022-11-15T05:39:32.191Z,51279.25
2022-11-15T05:42:18.518Z,51285.19
2022-11-15T05:45:07.961Z,51299.13
2022-11-15T05:47:55.736Z,51275.25
2022-11-15T05:50:44.650Z,51287.19
2022-11-15T05:53:31.957Z,51287.19
2022-11-15T05:56:18.013Z,51287.19
2022-11-15T05:59:04.327Z,51259.34
2022-11-15T06:01:50.400Z,51259.34
2022-11-15T06:04:36.309Z,51273.28
2022-11-15T06:07:22.157Z,51263.34
2022-11-15T06:10:09.208Z,51313.03
2022-11-15T06:13:03.925Z,51285.19
2022-11-15T06:15:49.841Z,51289.19
2022-11-15T06:18:36.321Z,51271.28
2022-11-15T06:21:22.116Z,51297.13
2022-11-15T06:24:08.563Z,51275.25
2022-11-15T06:26:54.598Z,51301.09
2022-11-15T06:29:40.035Z,51299.13
2022-11-15T06:32:26.260Z,51271.28
2022-11-15T06:35:12.455Z,51275.25
2022-11-15T06:38:08.373Z,51297.13
2022-11-15T06:40:53.868Z,51269.31
2022-11-15T06:43:40.828Z,51299.13
2022-11-15T06:46:26.455Z,51273.28
2022-11-15T06:49:11.841Z,51271.28
2022-11-15T06:51:57.140Z,51281.22
2022-11-15T06:54:42.714Z,51275.25
2022-11-15T06:57:28.320Z,51285.19
2022-11-15T07:00:14.664Z,51307.06
2022-11-15T07:03:03.714Z,51285.19
2022-11-15T07:05:55.456Z,51283.22
2022-11-15T07:08:42.759Z,51305.09
2022-11-15T07:11:28.530Z,51293.16
2022-11-15T07:14:14.012Z,51307.06
2022-11-15T07:16:59.472Z,51283.22
2022-11-15T07:19:44.881Z,51277.25
2022-11-15T07:22:30.434Z,51321.00
2022-11-15T07:25:15.951Z,51287.19
2022-11-15T07:28:02.112Z,51265.31
2022-11-15T07:30:47.917Z,51299.13
2022-11-15T07:33:34.160Z,51307.06
2022-11-15T07:36:20.152Z,51311.06
2022-11-15T07:39:05.597Z,51279.25
2022-11-15T07:42:10.877Z,51321.00
2022-11-15T07:44:57.274Z,51289.19
2022-11-15T07:47:47.770Z,51305.09
2022-11-15T07:50:33.495Z,51299.13
2022-11-15T07:53:19.600Z,51293.16
2022-11-15T07:56:08.664Z,51273.28
2022-11-15T07:58:54.309Z,51291.16
2022-11-15T08:01:39.701Z,51303.09
2022-11-15T08:04:25.670Z,51305.09
2022-11-15T08:07:11.205Z,51293.16
2022-11-15T08:09:57.451Z,51291.16
2022-11-15T08:12:43.407Z,51313.03
2022-11-15T08:15:29.676Z,51328.94
2022-11-15T08:18:17.771Z,51311.06
2022-11-15T08:21:04.073Z,51326.94
2022-11-15T08:23:49.598Z,51317.00
2022-11-15T08:26:35.301Z,51287.19
2022-11-15T08:29:20.919Z,51301.09
2022-11-15T08:32:06.578Z,51324.97
2022-11-15T08:34:52.776Z,51307.06
2022-11-15T08:37:38.391Z,51297.13
2022-11-15T08:40:24.299Z,51330.94
2022-11-15T08:43:10.373Z,51328.94
2022-11-15T08:46:00.119Z,51328.94
2022-11-15T08:48:46.213Z,51321.00
2022-11-15T08:51:31.611Z,51317.00
2022-11-15T08:54:17.265Z,51305.09
2022-11-15T08:57:03.229Z,51319.00
2022-11-15T08:59:48.621Z,51301.09
2022-11-15T09:02:34.224Z,51297.13
2022-11-15T09:05:19.897Z,51299.13
2022-11-15T09:08:25.035Z,51311.06
2022-11-15T09:11:12.072Z,51307.06
2022-11-15T09:13:57.857Z,51297.13
2022-11-15T09:16:43.385Z,51324.97
2022-11-15T09:19:28.994Z,51313.03
2022-11-15T09:22:14.618Z,51321.00
2022-11-15T09:24:59.959Z,51330.94
2022-11-15T09:27:45.515Z,51303.09
2022-11-15T09:30:30.984Z,51324.97
2022-11-15T09:33:16.752Z,51315.03
2022-11-15T09:36:05.774Z,51324.97
2022-11-15T09:38:51.460Z,51326.94
2022-11-15T09:42:11.874Z,51319.00
2022-11-15T09:45:21.866Z,51332.91
2022-11-15T09:48:34.243Z,51328.94
2022-11-15T09:51:36.125Z,51307.06
2022-11-15T09:54:45.479Z,51324.97
2022-11-15T09:57:19.457Z,51336.91
2022-11-15T09:59:50.300Z,51319.00
2022-11-15T10:02:48.991Z,51346.84
2022-11-15T10:05:23.415Z,51334.91
2022-11-15T10:08:04.304Z,51330.94
2022-11-15T10:10:49.303Z,51338.88
2022-11-15T10:13:30.428Z,51326.94
2022-11-15T10:16:31.500Z,51324.97
2022-11-15T10:19:39.750Z,51307.06
2022-11-15T10:22:27.457Z,51336.91
2022-11-15T10:25:20.749Z,51317.00
2022-11-15T10:28:18.531Z,51293.16
2022-11-15T10:30:52.678Z,51330.94
2022-11-15T10:33:40.163Z,51326.94
2022-11-15T10:36:10.819Z,51303.09
2022-11-15T10:38:50.262Z,51330.94
2022-11-15T10:41:21.390Z,51317.00
2022-11-15T10:44:24.204Z,51315.03
2022-11-15T10:46:57.663Z,51315.03
2022-11-15T10:49:30.765Z,51319.00
2022-11-15T10:52:12.944Z,51340.88
2022-11-15T10:55:17.790Z,51338.88
2022-11-15T10:57:56.860Z,51380.63
2022-11-15T11:00:30.385Z,51372.69
2022-11-15T11:02:57.955Z,51368.69
2022-11-15T11:05:42.525Z,51384.59
2022-11-15T11:08:13.121Z,51386.59
2022-11-15T11:11:01.891Z,51432.31
2022-11-15T11:13:34.316Z,51446.25
2022-11-15T11:16:16.431Z,51464.13
2022-11-15T11:19:22.732Z,51478.03
2022-11-15T11:22:32.877Z,51539.69
2022-11-15T11:25:55.527Z,51567.50
2022-11-15T11:28:31.706Z,51569.50
2022-11-15T11:31:33.797Z,51537.69
2022-11-15T11:34:42.036Z,51595.34
2022-11-15T11:37:48.823Z,51674.88
2022-11-15T11:40:31.770Z,51706.69
2022-11-15T11:43:55.463Z,51698.75
2022-11-15T11:46:50.731Z,51750.44
2022-11-15T11:49:47.142Z,51762.38
2022-11-15T11:52:28.112Z,51722.59
2022-11-15T11:55:31.465Z,51704.69
2022-11-15T11:58:23.182Z,51786.22
2022-11-15T12:01:17.379Z,51766.34
2022-11-15T12:03:57.983Z,51806.09
2022-11-15T12:06:41.565Z,51754.41
2022-11-15T12:09:27.848Z,51839.91
2022-11-15T12:12:35.040Z,51776.28
2022-11-15T12:15:18.305Z,51804.13
2022-11-15T12:17:46.635Z,51768.31
2022-11-15T12:20:20.012Z,51790.19
2022-11-15T12:23:37.456Z,51760.38
2022-11-15T12:26:19.198Z,51849.84
2022-11-15T12:29:07.001Z,51816.06
2022-11-15T12:31:35.208Z,51849.84
2022-11-15T12:34:20.958Z,51855.81
2022-11-15T12:36:50.406Z,51861.78
2022-11-15T12:39:18.915Z,51889.63
2022-11-15T12:42:05.897Z,51853.81
2022-11-15T12:44:32.929Z,51881.66
2022-11-15T12:47:06.304Z,51901.56
2022-11-15T12:49:36.067Z,51853.81
2022-11-15T12:52:03.045Z,51780.25
2022-11-15T12:54:42.164Z,51776.28
2022-11-15T12:57:09.270Z,51780.25
2022-11-15T13:00:26.521Z,51831.97
2022-11-15T13:03:19.303Z,51792.19
2022-11-15T13:05:46.295Z,51849.84
2022-11-15T13:08:38.488Z,51843.88
2022-11-15T13:11:45.237Z,51885.66
2022-11-15T13:14:43.451Z,51877.69
2022-11-15T13:17:44.752Z,51824.00
2022-11-15T13:20:17.481Z,51806.09
2022-11-15T13:23:02.039Z,51762.38
2022-11-15T13:26:10.344Z,51776.28
2022-11-15T13:28:51.890Z,51762.38
2022-11-15T13:31:37.232Z,51722.59
2022-11-15T13:37:23.360Z,51706.69
2022-11-15T13:39:51.052Z,51704.69
2022-11-15T13:42:22.386Z,51724.59
2022-11-15T13:45:01.821Z,51710.66
2022-11-15T13:47:30.828Z,51730.56
2022-11-15T13:50:02.246Z,51730.56
2022-11-15T13:52:41.509Z,51666.94
2022-11-15T13:55:22.768Z,51637.09
2022-11-15T13:57:58.048Z,51653.00
2022-11-15T14:00:35.226Z,51656.97
2022-11-15T14:03:26.675Z,51611.25
2022-11-15T14:06:16.367Z,51543.66
2022-11-15T14:09:10.936Z,51470.09
2022-11-15T14:11:50.075Z,51430.34
2022-11-15T14:14:17.195Z,51448.22
2022-11-15T14:16:56.239Z,51414.44
2022-11-15T14:19:26.017Z,51400.50
2022-11-15T14:22:23.266Z,51388.59
2022-11-15T14:25:14.667Z,51386.59
2022-11-15T14:27:44.705Z,51366.72
2022-11-15T14:30:17.309Z,51362.75
2022-11-15T14:32:51.093Z,51378.66
2022-11-15T14:35:21.702Z,51360.75
2022-11-15T14:37:49.541Z,51370.69
2022-11-15T14:40:20.793Z,51378.66
2022-11-15T14:42:50.950Z,51368.69
2022-11-15T14:45:21.702Z,51358.75
2022-11-15T14:47:49.090Z,51350.81
2022-11-15T14:50:21.411Z,51326.94
2022-11-15T14:52:49.657Z,51346.84
2022-11-15T14:55:26.054Z,51364.72
2022-11-15T14:57:55.779Z,51332.91
2022-11-15T15:00:23.362Z,51321.00
2022-11-15T15:02:54.467Z,51346.84
2022-11-15T15:05:33.592Z,51326.94
2022-11-15T15:08:01.025Z,51360.75
2022-11-15T15:10:47.085Z,51322.97
2022-11-15T15:13:24.590Z,51346.84
2022-11-15T15:15:52.926Z,51324.97
2022-11-15T15:18:21.199Z,51315.03
2022-11-15T15:20:58.667Z,51334.91
2022-11-15T15:23:27.993Z,51299.13
2022-11-15T15:25:55.132Z,51313.03
2022-11-15T15:28:22.404Z,51332.91
2022-11-15T15:30:50.499Z,51317.00
2022-11-15T15:33:17.703Z,51307.06
2022-11-15T15:35:44.825Z,51315.03
2022-11-15T15:38:16.432Z,51321.00
2022-11-15T15:40:43.490Z,51281.22
2022-11-15T15:43:10.571Z,51313.03
2022-11-15T15:45:41.464Z,51301.09
2022-11-15T15:48:16.879Z,51303.09
2022-11-15T15:50:46.081Z,51297.13
2022-11-15T15:53:14.262Z,51293.16
2022-11-15T15:55:41.726Z,51313.03
2022-11-15T15:58:09.429Z,51267.31
2022-11-15T16:00:39.901Z,51285.19
2022-11-15T16:03:06.977Z,51289.19
2022-11-15T16:05:34.199Z,51309.06
2022-11-15T16:08:01.229Z,51324.97
2022-11-15T16:10:32.537Z,51301.09
2022-11-15T16:12:59.640Z,51289.19
2022-11-15T16:15:31.208Z,51321.00
2022-11-15T16:18:00.629Z,51299.13
2022-11-15T16:20:42.081Z,51285.19
2022-11-15T16:23:12.137Z,51285.19
2022-11-15T16:25:46.722Z,51289.19
2022-11-15T16:28:32.886Z,51277.25
2022-11-15T16:31:12.351Z,51301.09
2022-11-15T16:33:41.156Z,51267.31
2022-11-15T16:36:29.436Z,51285.19
2022-11-15T16:38:58.491Z,51279.25
2022-11-15T16:41:25.834Z,51275.25
2022-11-15T16:43:53.034Z,51287.19
2022-11-15T16:46:23.067Z,51289.19
2022-11-15T16:48:51.369Z,51293.16
2022-11-15T16:51:21.514Z,51273.28
2022-11-15T16:53:50.016Z,51285.19
2022-11-15T16:56:30.061Z,51273.28
2022-11-15T16:58:59.178Z,51257.38
2022-11-15T17:01:50.853Z,51295.16
2022-11-15T17:04:22.624Z,51301.09
2022-11-15T17:06:50.087Z,51303.09
2022-11-15T17:09:23.627Z,51265.31
2022-11-15T17:11:51.706Z,51281.22
2022-11-15T17:14:19.316Z,51281.22
2022-11-15T17:16:46.975Z,51267.31
2022-11-15T17:19:14.526Z,51263.34
2022-11-15T17:21:43.076Z,51263.34
2022-11-15T17:24:10.788Z,51273.28
2022-11-15T17:26:40.717Z,51293.16
2022-11-15T17:29:09.277Z,51261.34
2022-11-15T17:31:39.444Z,51269.31
2022-11-15T17:34:07.665Z,51255.38
2022-11-15T17:36:35.250Z,51273.28
2022-11-15T17:39:04.121Z,51247.44
2022-11-15T17:41:31.842Z,51277.25
2022-11-15T17:44:00.537Z,51285.19
2022-11-15T17:46:29.184Z,51279.25
2022-11-15T17:48:57.576Z,51261.34
2022-11-15T17:51:25.045Z,51277.25
2022-11-15T17:53:52.971Z,51277.25
2022-11-15T17:56:23.566Z,51275.25
2022-11-15T17:58:58.735Z,51277.25
2022-11-15T18:01:32.566Z,51261.34
2022-11-15T18:04:02.207Z,51277.25
2022-11-15T18:06:33.218Z,51275.25
2022-11-15T18:09:01.957Z,51243.47
2022-11-15T18:11:33.220Z,51265.31
2022-11-15T18:14:04.809Z,51255.38
2022-11-15T18:16:37.545Z,51273.28
2022-11-15T18:19:09.062Z,51281.22
2022-11-15T18:21:56.026Z,51271.28
2022-11-15T18:24:35.495Z,51271.28
2022-11-15T18:27:05.219Z,51269.31
2022-11-15T18:29:34.708Z,51261.34
2022-11-15T18:32:05.128Z,51291.16
2022-11-15T18:34:34.075Z,51241.47
2022-11-15T18:37:03.420Z,51251.41
2022-11-15T18:39:30.683Z,51259.34
2022-11-15T18:41:58.528Z,51263.34
2022-11-15T18:44:25.758Z,51279.25
2022-11-15T18:46:52.903Z,51263.34
2022-11-15T18:49:20.492Z,51261.34
2022-11-15T18:51:48.458Z,51261.34
2022-11-15T18:54:17.071Z,51253.41
2022-11-15T18:56:45.596Z,51245.44
2022-11-15T18:59:13.946Z,51257.38
2022-11-15T19:01:48.579Z,51259.34
2022-11-15T19:04:20.703Z,51253.41
2022-11-15T19:06:50.348Z,51257.38
2022-11-15T19:09:19.607Z,51263.34
2022-11-15T19:11:49.154Z,51257.38
2022-11-15T19:14:18.350Z,51269.31
2022-11-15T19:16:52.473Z,51257.38
2022-11-15T19:19:23.536Z,51281.22
2022-11-15T19:21:51.840Z,51247.44
2022-11-15T19:24:18.893Z,51235.50
2022-11-15T19:26:47.025Z,51243.47
2022-11-15T19:29:18.300Z,51267.31
2022-11-15T19:31:45.999Z,51253.41
2022-11-15T19:34:13.143Z,51259.34
2022-11-15T19:36:43.363Z,51261.34
2022-11-15T19:39:13.382Z,51237.50
2022-11-15T19:41:43.356Z,51273.28
2022-11-15T19:44:13.049Z,51255.38
2022-11-15T19:46:40.888Z,51249.41
2022-11-15T19:49:10.599Z,51241.47
2022-11-15T19:51:39.045Z,51247.44
2022-11-15T19:54:08.947Z,51253.41
2022-11-15T19:56:36.917Z,51243.47
2022-11-15T19:59:05.233Z,51251.41
2022-11-15T20:01:36.503Z,51277.25
2022-11-15T20:04:04.238Z,51217.59
2022-11-15T20:06:40.682Z,51261.34
2022-11-15T20:09:11.548Z,51251.41
2022-11-15T20:11:39.449Z,51247.44
2022-11-15T20:14:08.948Z,51249.41
2022-11-15T20:16:36.156Z,51249.41
2022-11-15T20:19:03.290Z,51265.31
2022-11-15T20:21:30.566Z,51257.38
2022-11-15T20:23:58.016Z,51235.50
2022-11-15T20:26:25.608Z,51245.44
2022-11-15T20:28:53.044Z,51243.47
2022-11-15T20:31:20.238Z,51253.41
2022-11-15T20:33:47.327Z,51261.34
2022-11-15T20:36:16.129Z,51249.41
2022-11-15T20:38:45.127Z,51249.41
2022-11-15T20:41:13.869Z,51243.47
2022-11-15T20:43:43.684Z,51237.50
2022-11-15T20:46:12.740Z,51245.44
2022-11-15T20:48:40.391Z,51229.53
2022-11-15T20:51:16.344Z,51251.41
2022-11-15T20:53:45.120Z,51267.31
2022-11-15T20:56:19.403Z,51257.38
2022-11-15T20:58:47.515Z,51261.34
2022-11-15T21:01:16.403Z,51249.41
2022-11-15T21:03:43.828Z,51267.31
2022-11-15T21:06:11.857Z,51245.44
2022-11-15T21:09:07.910Z,51233.50
2022-11-15T21:11:54.040Z,51245.44
2022-11-15T21:14:21.760Z,51269.31
2022-11-15T21:16:48.937Z,51277.25
2022-11-15T21:19:16.125Z,51241.47
2022-11-15T21:21:43.153Z,51253.41
2022-11-15T21:24:11.113Z,51243.47
2022-11-15T21:26:38.539Z,51251.41
2022-11-15T21:29:05.975Z,51259.34
2022-11-15T21:31:33.458Z,51237.50
2022-11-15T21:34:07.267Z,51233.50
2022-11-15T21:36:34.456Z,51213.63
2022-11-15T21:39:01.708Z,51237.50
2022-11-15T21:41:28.867Z,51243.47
2022-11-15T21:44:03.977Z,51267.31
2022-11-15T21:46:34.538Z,51245.44
2022-11-15T21:49:01.612Z,51229.53
2022-11-15T21:51:28.710Z,51255.38
2022-11-15T21:53:56.604Z,51241.47
2022-11-15T21:56:25.611Z,51253.41
2022-11-15T21:58:54.330Z,51287.19
2022-11-15T22:01:42.183Z,51237.50
2022-11-15T22:04:09.856Z,51249.41
2022-11-15T22:06:37.129Z,51241.47
2022-11-15T22:09:05.969Z,51213.63
2022-11-15T22:11:33.809Z,51253.41
2022-11-15T22:14:01.581Z,51237.50
2022-11-15T22:16:28.763Z,51265.31
2022-11-15T22:18:56.048Z,51251.41
2022-11-15T22:21:23.427Z,51233.50
2022-11-15T22:23:51.355Z,51231.53
2022-11-15T22:26:23.537Z,51239.47
2022-11-15T22:28:51.248Z,51259.34
2022-11-15T22:31:18.929Z,51261.34
2022-11-15T22:33:46.160Z,51265.31
2022-11-15T22:36:13.820Z,51213.63
2022-11-15T22:38:41.043Z,51243.47
2022-11-15T22:41:08.798Z,51225.56
2022-11-15T22:43:36.073Z,51253.41
2022-11-15T22:46:04.555Z,51241.47
2022-11-15T22:48:36.347Z,51235.50
2022-11-15T22:51:05.594Z,51237.50
2022-11-15T22:53:33.254Z,51249.41
2022-11-15T22:56:03.568Z,51251.41
2022-11-15T22:58:34.552Z,51237.50
2022-11-15T23:01:04.428Z,51235.50
2022-11-15T23:03:33.743Z,51259.34
2022-11-15T23:06:06.808Z,51243.47
2022-11-15T23:08:34.510Z,51221.59
2022-11-15T23:11:22.631Z,51233.50
2022-11-15T23:13:53.203Z,51243.47
2022-11-15T23:16:34.398Z,51217.59
2022-11-15T23:19:12.431Z,51245.44
2022-11-15T23:22:02.046Z,51249.41
2022-11-15T23:24:29.835Z,51249.41
2022-11-15T23:27:01.033Z,51227.56
2022-11-15T23:29:29.626Z,51247.44
2022-11-15T23:32:16.111Z,51247.44
2022-11-15T23:34:45.625Z,51263.34
2022-11-15T23:37:15.436Z,51237.50
2022-11-15T23:39:42.721Z,51235.50
2022-11-15T23:42:19.696Z,51229.53
2022-11-15T23:44:50.538Z,51235.50
2022-11-15T23:47:19.330Z,51229.53
2022-11-15T23:49:46.565Z,51257.38
2022-11-15T23:52:15.419Z,51273.28
2022-11-15T23:54:43.104Z,51275.25
2022-11-15T23:57:12.052Z,51247.44
2022-11-15T23:59:41.213Z,51263.34
